• Join FlightAware (Why Join?)
  • Login
  • US Flag 
 
02:35AM EST


 

Airport Tracker/Info


-or-


 

Live Flight TrackerFlight Track Log ✈ UAL4462 ✈ 01-May-2013 ✈ KOMA - KIAH

Flight Track Log - Related Links

Times and Time Zones

All times are in EDT time to prevent confusion due to time zone crossing. See the UAL4462 flight status page for this flight to view local times or setup timezone preferences in your user account.

Time Position Orientation Groundspeed Altitude Reporting Facility
EDT Latitude Longitude Course Direction KTS MPH feet Rate Location/Type
01:05PM 41.3131 -95.9119 201° Southwest 163 188 1,600  Level Minneapolis Center
01:06PM 41.3414 -95.9614 307° West 187 215 3,600 1,860 Climbing Minneapolis Center
01:07PM 41.2978 -96.0303 230° Southwest 276 318 5,400 2,400 Climbing Minneapolis Center
01:08PM 40.9794 -95.8260 203° Southwest  Level FlightAware Approximate
01:08PM 41.2461 -96.1053 228° Southwest 266 306 8,900  Level Minneapolis Center
01:09PM 40.8951 -95.8811 207° Southwest  Level FlightAware Approximate
01:09PM 41.2061 -96.1714 231° Southwest 238 274 10,400  Level Minneapolis Center
01:10PM 40.8109 -95.9362 201° Southwest  Level FlightAware Approximate
01:10PM 41.1314 -96.2383 214° Southwest 273 314 11,900  Level Minneapolis Center
01:11PM 41.0556 -96.2678 196° South 284 327 13,500 1,500 Climbing Minneapolis Center
01:12PM 40.9797 -96.2992 197° South 285 328 15,000 1,440 Climbing Minneapolis Center
01:13PM 40.9022 -96.3317 198° South 290 334 16,500 1,380 Climbing Minneapolis Center
01:14PM 40.8242 -96.3628 197° South 292 336 17,900 1,200 Climbing Minneapolis Center
01:15PM 40.7447 -96.3975 198° South 297 342 19,000 1,200 Climbing Minneapolis Center
01:16PM 40.6642 -96.4303 197° South 301 346 20,400 1,500 Climbing Minneapolis Center
01:17PM 40.5650 -96.4708 197° South 308 354 22,100 1,440 Climbing Minneapolis Center
01:18PM 40.4806 -96.5064 198° South 314 361 23,400 1,140 Climbing Minneapolis Center
01:19PM 40.3953 -96.5411 197° South 318 366 24,500 1,080 Climbing Minneapolis Center
01:20PM 40.3094 -96.5756 197° South 321 369 25,700 1,080 Climbing Minneapolis Center
01:21PM 40.2219 -96.6114 197° South 327 376 26,800 1,020 Climbing Minneapolis Center
01:22PM 40.1336 -96.6464 197° South 329 379 27,800 960 Climbing Minneapolis Center
01:23PM 40.0458 -96.6825 197° South 331 381 28,900 1,080 Climbing Minneapolis Center
01:24PM 39.9397 -96.7253 197° South 332 382 30,100 960 Climbing Minneapolis Center
01:25PM 39.8508 -96.7603 197° South 332 382 31,000 840 Climbing Minneapolis Center
01:26PM 39.8047 -96.7806 199° South 337 388 31,500 840 Climbing Kansas City Center
01:27PM 39.7136 -96.8167 197° South 340 391 32,400 900 Climbing Kansas City Center
01:28PM 39.6167 -96.8558 197° South 345 397 33,400 840 Climbing Kansas City Center
01:29PM 39.5125 -96.8964 197° South 350 403 34,200 720 Climbing Kansas City Center
01:30PM 39.4242 -96.9328 198° South 348 400 34,900 660 Climbing Kansas City Center
01:31PM 39.3197 -96.9725 196° South 350 403 35,600 480 Climbing Kansas City Center
01:32PM 39.2306 -97.0078 197° South 351 404 36,000 180 Climbing Kansas City Center
01:33PM 39.1225 -97.0511 197° South 361 415 36,000  Level Kansas City Center
01:34PM 39.0247 -97.0883 196° South 374 430 36,000  Level Kansas City Center
01:35PM 38.9175 -97.1328 198° South 394 453 36,000  Level Kansas City Center
01:36PM 38.8117 -97.1744 197° South 406 467 36,000  Level Kansas City Center
01:37PM 38.6783 -97.2267 197° South 416 479 36,000  Level Kansas City Center
01:38PM 38.5653 -97.2708 197° South 422 486 36,000  Level Kansas City Center
01:39PM 38.4533 -97.3139 197° South 420 483 36,000  Level Kansas City Center
01:40PM 38.3433 -97.3561 197° South 413 475 36,000  Level Kansas City Center
01:41PM 38.2342 -97.3978 197° South 408 470 36,000  Level Kansas City Center
01:42PM 38.1247 -97.4400 197° South 407 468 36,000  Level Kansas City Center
01:44PM 38.0117 -97.4500 184° South 406 467 36,000  Level Kansas City Center
01:45PM 37.8747 -97.4347 175° South 407 468 36,000  Level Kansas City Center
01:46PM 37.7597 -97.4208 175° South 410 472 36,000  Level Kansas City Center
01:47PM 37.6439 -97.4078 175° South 412 474 36,000  Level Kansas City Center
01:48PM 37.5281 -97.3950 175° South 416 479 36,000  Level Kansas City Center
01:49PM 37.4100 -97.3814 175° South 422 486 36,000  Level Kansas City Center
01:50PM 37.2897 -97.3683 175° South 427 491 36,000  Level Kansas City Center
01:51PM 37.1700 -97.3567 176° South 429 494 36,000  Level Kansas City Center
01:52PM 37.0297 -97.3375 174° South 423 487 36,000 180 Level Kansas City Center
01:53PM 36.9114 -97.3233 175° South 424 488 36,400 480 Climbing Kansas City Center
01:54PM 36.8022 -97.3114 175° South 421 484 37,000 240 Climbing Kansas City Center
01:55PM 36.6869 -97.2989 175° South 417 480 37,000  Level Kansas City Center
01:56PM 36.5464 -97.2872 176° South 419 482 37,000  Level Kansas City Center
01:57PM 36.4286 -97.2739 175° South 422 486 37,000  Level Kansas City Center
01:58PM 36.3103 -97.2606 175° South 425 489 37,000  Level Kansas City Center
01:59PM 36.1908 -97.2472 175° South 429 494 37,000  Level Kansas City Center
02:00PM 36.0731 -97.2353 175° South 426 490 37,000  Level Kansas City Center
02:01PM 35.9536 -97.2219 175° South 428 493 37,000  Level Kansas City Center
02:02PM 35.8092 -97.2058 175° South 433 498 37,000  Level Kansas City Center
02:03PM 35.7125 -97.1964 175° South 445 512 37,000  Level Fort Worth Center
02:04PM 35.5936 -97.1839 175° South 445 512 37,000  Level Fort Worth Center
02:05PM 35.4603 -97.1664 174° South 445 512 37,000  Level Fort Worth Center
02:06PM 35.3372 -97.1539 175° South 445 512 37,000  Level Fort Worth Center
02:07PM 35.2161 -97.1442 176° South 440 506 37,000  Level Fort Worth Center
02:08PM 35.0931 -97.1319 175° South 440 506 37,000  Level Fort Worth Center
02:09PM 34.9742 -97.1197 175° South 440 506 37,000  Level Fort Worth Center
02:10PM 34.8531 -97.1075 175° South 440 506 37,000  Level Fort Worth Center
02:11PM 34.7300 -97.0953 175° South 440 506 37,000  Level Fort Worth Center
02:12PM 34.6089 -97.0856 176° South 440 506 37,000  Level Fort Worth Center
02:13PM 34.4858 -97.0683 173° South 440 506 37,000  Level Fort Worth Center
02:14PM 34.3628 -97.0539 174° South 440 506 37,000  Level Fort Worth Center
02:15PM 34.2375 -97.0467 177° South 445 512 37,000  Level Fort Worth Center
02:16PM 34.1144 -97.0322 174° South 445 512 37,000  Level Fort Worth Center
02:17PM 33.9911 -97.0203 175° South 445 512 37,000  Level Fort Worth Center
02:18PM 33.8658 -97.0058 175° South 445 512 37,000  Level Fort Worth Center
02:19PM 33.7572 -96.9939 175° South 437 503 37,000  Level Fort Worth Center
02:20PM 33.6194 -96.9794 175° South 450 518 37,000  Level Fort Worth Center
02:21PM 33.5089 -96.9675 175° South 450 518 37,000  Level Fort Worth Center
02:22PM 33.3689 -96.9558 176° South 455 524 37,000  Level Fort Worth Center
02:23PM 33.2394 -96.9392 174° South 462 532 37,000  Level Fort Worth Center
02:24PM 33.1267 -96.9297 176° South 461 531 37,000  Level Fort Worth Center
02:25PM 32.9869 -96.9106 173° South 461 531 37,000  Level Fort Worth Center
02:26PM 32.8739 -96.8817 168° South 461 531 37,000  Level Fort Worth Center
02:27PM 32.7486 -96.8503 168° South 467 537 37,000  Level Fort Worth Center
02:28PM 32.6128 -96.8117 167° South 467 537 37,000  Level Fort Worth Center
02:29PM 32.4978 -96.7828 168° South 467 537 37,000  Level Fort Worth Center
02:30PM 32.3578 -96.7444 167° South 467 537 37,000 -300 Level Fort Worth Center
02:31PM 32.2447 -96.7133 167° South 467 537 36,400 -780 Descending Fort Worth Center
02:32PM 32.1214 -96.6775 166° South 467 537 35,500 -960 Descending Fort Worth Center
02:33PM 31.9981 -96.6467 168° South 457 526 34,500 -1,020 Descending Fort Worth Center
02:34PM 31.8789 -96.6108 166° South 450 518 33,500 -1,500 Descending Fort Worth Center
02:36PM 31.6269 -96.5431 167° South 460 529 30,100 -1,500 Descending Houston Center
02:37PM 31.5011 -96.5075 166° South 458 527 29,000 -540 Descending Houston Center
02:38PM 31.3819 -96.4483 157° South 457 526 29,000 -300 Level Houston Center
02:39PM 31.2686 -96.3747 151° Southeast 459 528 28,500 -1,500 Descending Houston Center
02:40PM 31.1550 -96.3022 151° Southeast 459 528 26,000 -2,220 Descending Houston Center
02:41PM 31.0456 -96.2339 152° Southeast 445 512 24,000 -2,160 Descending Houston Center
02:42PM 30.9250 -96.1575 151° Southeast 422 486 21,600 -2,640 Descending Houston Center
02:43PM 30.8269 -96.0964 152° Southeast 401 461 18,600 -2,940 Descending Houston Center
02:44PM 30.7239 -96.0314 152° Southeast 408 470 15,500 -3,180 Descending Houston Center
02:45PM 30.6575 -95.9922 153° Southeast 419 482 13,500 -2,820 Descending Houston Center
02:46PM 30.5397 -95.9161 151° Southeast 385 443 10,500 -2,100 Descending Houston Center
02:46PM 30.5214 -95.9061 155° Southeast 393 452 10,400 -540 Descending Houston Center
02:47PM 30.4508 -95.8608 151° Southeast 331 381 10,000 -300 Descending Houston Center
02:47PM 30.4392 -95.8492 139° Southeast 346 398 10,100 -600 Climbing Houston Center
02:48PM 30.3717 -95.8192 159° South 321 369 9,400 -780 Descending Houston Center
02:48PM 30.3589 -95.8172 173° South 319 367 9,300 -1,020 Descending Houston Center
02:49PM 30.2847 -95.8075 174° South 313 360 8,400 -1,080 Descending Houston Center
02:49PM 30.2722 -95.8067 177° South 313 360 8,200 -1,500 Descending Houston Center
02:50PM 30.2019 -95.7978 174° South 267 307 6,900 -1,500 Descending Houston Center
02:50PM 30.1942 -95.7958 168° South 288 331 6,700 -2,100 Descending Houston Center
02:51PM 30.1256 -95.7897 176° South 267 307 4,800 -2,280 Descending Houston Center
02:52PM 30.1058 -95.7878 175° South 270 311 4,400 -1,800 Descending Houston Center
02:52PM 30.0558 -95.7836 176° South 248 285 3,000 -1,380 Descending Houston Center
02:53PM 30.0400 -95.7825 177° South 248 285 3,000  Level Houston Center
02:53PM 30.0117 -95.7572 142° Southeast 219 252 3,000  Level Houston Center
02:54PM 30.0064 -95.7344 105° East 226 260 3,000 -120 Level Houston Center
02:54PM 30.0050 -95.6833 92° East 187 215 2,900  Descending Houston Center
02:55PM 30.0069 -95.6681 82° East 210 242 3,000  Climbing Houston Center
02:55PM 30.0058 -95.6228 92° East 188 216 2,900  Descending Houston Center
02:56PM 30.0067 -95.6097 86° East 192 221 3,000  Climbing Houston Center
02:56PM 30.0067 -95.5625 90° East 187 215 2,900  Descending Houston Center
02:57PM 30.0075 -95.5386 88° East 186 214 3,000 -360 Climbing Houston Center
02:57PM 30.0061 -95.5094 93° East 181 208 2,600 -780 Descending Houston Center
02:58PM 30.0075 -95.4803 87° East 184 212 2,200 -1,020 Descending Houston Center
02:58PM 30.0053 -95.4517 95° East 169 194 1,600 -1,200 Descending Houston Center